Etusivu
METAR-TAF:

METAR-TAF

Lentoasemat :

Schaffen

Diest, Belgia

Leveyspiiri: 51-00N, Pituuspiiri: 005-04E, korkeus merenpinnasta: 30 m

Tämänhetkinen sää

Tämä raportti tehtiin 28 minuuttia sitten, kello 21.25 UTC
Tuuli 3 kn pohjoisesta/koillisesta
Lämpötila 26°C
Kosteus 39%
Ilmanpaine 1018 hPa
Näkyvyys 10 km tai enemmän

METAR: EBDT 072125Z AUTO 02003KT 9999 BKN140/// 26/11 Q1018 BLU

Aika: 23:53 (21:53 UTC)

Sääennuste

Tämä raportti tehtiin 34 tuntia ja 12 minuuttia sitten, kello 11.41 UTC
Ennuste voimassa 06. päivästä klo 13 UTC - 06. päivään klo 22 UTC
Tuuli 4 kn etelästä
Näkyvyys 10 km tai enemmän
Hajanaisia pilviä 25000 ft:n korkeudessa
Ajoittain
06. päivästä klo 13 UTC - 06. päivään klo 17 UTC
Tuuli 5 kn etelästä puuskistuen 15 kn:hen
Muutamia pilviä 25000 ft:n korkeudessa
Tulossa
06. päivästä klo 17 UTC - 06. päivään klo 19 UTC
Tuuli 4 kn idästä

TAF: EBDT 061141Z 0613/0622 18004KT 9999 SCT250 TEMPO 0613/0617 18005G15KT FEW250 BECMG 0617/0619 09004KT

Säähavainnot ja -ennusteet yli 4000 lentoasemalta (METAR- ja TAF-raportit).

Käytössä olevat sääasemat on merkitty karttaan keltaisilla ja punaisilla pisteillä.

Aseta hiiri pisteen päälle nähdäksesi sääaseman nimen.

Klikkaa sitten nähdäksesi säähavainnot ja -ennusteet.

Kartan vaihtaminen: klikkaa mustalla rastilla varustettuja vihreitä pisteitä, niin voit zoomata sisään; viivalla varustettua vihreää pistettä, niin voit zoomata ulos tai vihreitä nuolia, niin pääset viereisille kartoille.


METAR-TAF: